createdAt,value
2023-03-17T00:01:15.366Z,5.10
2023-03-17T00:03:20.608Z,5.95
2023-03-17T00:05:25.708Z,6.20
2023-03-17T00:07:27.288Z,4.70
2023-03-17T00:09:28.786Z,6.40
2023-03-17T00:11:30.357Z,4.60
2023-03-17T00:13:31.961Z,4.68
2023-03-17T00:15:33.582Z,8.07
2023-03-17T00:17:35.106Z,5.20
2023-03-17T00:19:36.761Z,5.15
2023-03-17T00:21:39.725Z,7.63
2023-03-17T00:23:43.610Z,6.65
2023-03-17T00:25:45.543Z,5.97
2023-03-17T00:27:47.097Z,5.20
2023-03-17T00:29:48.656Z,5.70
2023-03-17T00:31:50.372Z,5.78
2023-03-17T00:33:53.797Z,5.10
2023-03-17T00:35:56.882Z,6.18
2023-03-17T00:38:00.091Z,5.47
2023-03-17T00:40:01.630Z,6.43
2023-03-17T00:42:03.414Z,6.35
2023-03-17T00:44:05.115Z,5.47
2023-03-17T00:46:12.220Z,6.40
2023-03-17T00:48:15.719Z,7.75
2023-03-17T00:50:19.731Z,5.28
2023-03-17T00:52:21.254Z,6.80
2023-03-17T00:54:24.233Z,5.95
2023-03-17T00:56:25.844Z,7.32
2023-03-17T00:58:29.623Z,5.93
2023-03-17T01:00:31.466Z,4.82
2023-03-17T01:02:33.407Z,5.15
2023-03-17T01:04:35.120Z,5.97
2023-03-17T01:06:36.943Z,6.32
2023-03-17T01:08:39.787Z,4.95
2023-03-17T01:10:42.738Z,4.53
2023-03-17T01:12:46.522Z,6.03
2023-03-17T01:14:48.125Z,5.80
2023-03-17T01:16:49.859Z,6.47
2023-03-17T01:18:51.471Z,7.15
2023-03-17T01:20:53.066Z,5.05
2023-03-17T01:22:55.115Z,5.35
2023-03-17T01:24:56.602Z,5.22
2023-03-17T01:26:59.536Z,8.90
2023-03-17T01:29:01.067Z,6.43
2023-03-17T01:31:02.654Z,5.30
2023-03-17T01:33:05.564Z,7.55
2023-03-17T01:35:07.837Z,5.60
2023-03-17T01:37:09.599Z,5.30
2023-03-17T01:39:11.273Z,5.95
2023-03-17T01:41:13.262Z,6.65
2023-03-17T01:43:20.066Z,5.55
2023-03-17T01:45:59.060Z,6.85
2023-03-17T01:48:00.646Z,6.30
2023-03-17T01:50:06.642Z,7.85
2023-03-17T01:52:11.795Z,7.97
2023-03-17T01:54:18.448Z,7.75
2023-03-17T01:56:20.533Z,6.75
2023-03-17T01:58:24.457Z,5.85
2023-03-17T02:00:26.866Z,5.70
2023-03-17T02:04:33.126Z,5.97
2023-03-17T02:06:35.831Z,7.75
2023-03-17T02:08:38.576Z,7.25
2023-03-17T02:10:41.616Z,5.72
2023-03-17T02:12:45.864Z,6.38
2023-03-17T02:14:48.827Z,6.53
2023-03-17T02:16:50.565Z,7.30
2023-03-17T02:18:52.272Z,7.15
2023-03-17T02:21:30.042Z,7.32
2023-03-17T02:23:31.722Z,7.20
2023-03-17T02:25:35.998Z,8.88
2023-03-17T02:27:41.656Z,7.95
2023-03-17T02:29:43.257Z,6.40
2023-03-17T02:31:52.311Z,5.97
2023-03-17T02:33:54.523Z,6.57
2023-03-17T02:35:56.132Z,7.63
2023-03-17T02:37:59.052Z,7.18
2023-03-17T02:40:00.714Z,6.97
2023-03-17T02:42:02.419Z,6.90
2023-03-17T02:44:04.306Z,8.35
2023-03-17T02:46:05.976Z,7.38
2023-03-17T02:48:07.932Z,7.38
2023-03-17T02:50:18.043Z,7.45
2023-03-17T02:52:19.753Z,9.95
2023-03-17T02:54:22.785Z,10.77
2023-03-17T02:56:24.396Z,7.68
2023-03-17T02:58:26.018Z,8.32
2023-03-17T03:00:28.107Z,7.57
2023-03-17T03:02:29.944Z,7.60
2023-03-17T03:04:31.550Z,8.65
2023-03-17T03:06:33.323Z,8.38
2023-03-17T03:08:35.274Z,7.45
2023-03-17T03:10:38.203Z,7.90
2023-03-17T03:12:39.753Z,8.35
2023-03-17T03:14:41.507Z,9.60
2023-03-17T03:16:43.154Z,7.95
2023-03-17T03:18:44.716Z,8.48
2023-03-17T03:20:47.048Z,9.48
2023-03-17T03:22:48.615Z,8.65
2023-03-17T03:24:50.356Z,8.98
2023-03-17T03:26:53.480Z,8.50
2023-03-17T03:28:55.327Z,7.68
2023-03-17T03:30:57.024Z,9.02
2023-03-17T03:32:59.084Z,9.43
2023-03-17T03:35:00.730Z,9.40
2023-03-17T03:37:02.372Z,10.73
2023-03-17T03:39:03.954Z,9.75
2023-03-17T03:41:05.823Z,10.77
2023-03-17T03:43:21.785Z,9.25
2023-03-17T03:45:24.838Z,8.80
2023-03-17T03:47:26.429Z,9.25
2023-03-17T03:49:28.155Z,10.95
2023-03-17T03:51:29.826Z,11.45
2023-03-17T03:53:31.484Z,10.15
2023-03-17T03:55:33.155Z,12.00
2023-03-17T03:57:34.777Z,11.02
2023-03-17T03:59:38.118Z,9.75
2023-03-17T04:01:39.780Z,9.30
2023-03-17T04:03:41.561Z,11.15
2023-03-17T04:05:43.191Z,10.10
2023-03-17T04:07:45.550Z,9.90
2023-03-17T04:09:47.157Z,11.07
2023-03-17T04:11:48.798Z,11.50
2023-03-17T04:13:50.377Z,12.20
2023-03-17T04:15:53.350Z,12.52
2023-03-17T04:17:54.979Z,12.05
2023-03-17T04:19:56.551Z,9.88
2023-03-17T04:21:58.303Z,11.93
2023-03-17T04:23:59.950Z,12.10
2023-03-17T04:26:01.618Z,13.27
2023-03-17T04:28:03.365Z,16.58
2023-03-17T04:30:06.708Z,15.90
2023-03-17T04:32:10.785Z,16.90
2023-03-17T04:34:15.698Z,19.40
2023-03-17T04:36:18.994Z,21.83
2023-03-17T04:38:20.688Z,21.50
2023-03-17T04:40:22.570Z,21.10
2023-03-17T04:42:24.125Z,18.50
2023-03-17T04:44:25.728Z,20.42
2023-03-17T04:46:27.326Z,15.90
2023-03-17T04:48:30.299Z,13.55
2023-03-17T04:50:32.186Z,14.27
2023-03-17T04:52:34.391Z,13.52
2023-03-17T04:54:36.151Z,12.60
2023-03-17T04:56:37.801Z,14.55
2023-03-17T04:58:39.393Z,12.10
2023-03-17T05:00:41.014Z,11.27
2023-03-17T05:02:42.781Z,9.38
2023-03-17T05:04:45.964Z,10.50
2023-03-17T05:06:47.543Z,9.45
2023-03-17T05:08:49.322Z,10.82
2023-03-17T05:10:50.966Z,9.90
2023-03-17T05:12:52.537Z,8.90
2023-03-17T05:14:54.118Z,7.78
2023-03-17T05:16:55.776Z,9.20
2023-03-17T05:18:57.545Z,7.97
2023-03-17T05:21:00.804Z,9.00
2023-03-17T05:23:02.514Z,8.60
2023-03-17T05:25:04.678Z,11.23
2023-03-17T05:27:06.294Z,11.18
2023-03-17T05:29:07.983Z,11.35
2023-03-17T05:31:11.216Z,13.73
2023-03-17T05:33:13.380Z,13.52
2023-03-17T05:35:15.179Z,10.40
2023-03-17T05:37:18.288Z,12.50
2023-03-17T05:39:19.931Z,10.10
2023-03-17T05:41:21.401Z,11.20
2023-03-17T05:43:23.018Z,10.18
2023-03-17T05:45:24.580Z,10.73
2023-03-17T05:47:26.217Z,10.57
2023-03-17T05:49:28.540Z,11.32
2023-03-17T05:51:30.210Z,11.30
2023-03-17T05:53:33.447Z,14.45
2023-03-17T05:55:35.030Z,12.75
2023-03-17T05:57:36.648Z,14.07
2023-03-17T05:59:38.228Z,19.58
2023-03-17T06:01:39.795Z,15.20
2023-03-17T06:03:41.466Z,14.18
2023-03-17T06:05:43.129Z,13.30
2023-03-17T06:07:53.918Z,16.42
2023-03-17T06:09:58.768Z,16.60
2023-03-17T06:12:00.431Z,19.85
2023-03-17T06:14:02.049Z,17.42
2023-03-17T06:16:03.834Z,21.27
2023-03-17T06:18:05.782Z,15.30
2023-03-17T06:20:09.617Z,18.60
2023-03-17T06:22:11.498Z,20.38
2023-03-17T06:24:13.123Z,13.40
2023-03-17T06:26:16.212Z,15.65
2023-03-17T06:28:17.797Z,13.30
2023-03-17T06:30:19.651Z,12.05
2023-03-17T06:32:21.343Z,11.60
2023-03-17T06:34:24.213Z,14.50
2023-03-17T06:36:26.161Z,10.20
2023-03-17T06:38:28.053Z,10.55
2023-03-17T06:40:29.868Z,11.45
2023-03-17T06:42:32.864Z,12.60
2023-03-17T06:44:34.785Z,13.63
2023-03-17T06:46:36.755Z,11.38
2023-03-17T06:48:38.928Z,17.35
2023-03-17T06:50:40.483Z,15.88
2023-03-17T06:52:42.283Z,11.85
2023-03-17T06:54:43.829Z,14.45
2023-03-17T06:56:45.476Z,12.18
2023-03-17T06:58:48.770Z,12.70
2023-03-17T07:00:50.579Z,13.77
2023-03-17T07:02:52.151Z,14.13
2023-03-17T07:04:53.798Z,14.70
2023-03-17T07:06:55.407Z,14.57
2023-03-17T07:08:57.268Z,15.63
2023-03-17T07:10:58.873Z,12.77
2023-03-17T07:13:00.488Z,12.27
2023-03-17T07:15:03.790Z,12.57
2023-03-17T07:17:06.159Z,14.05
2023-03-17T07:19:07.826Z,16.83
2023-03-17T07:21:09.491Z,15.02
2023-03-17T07:23:14.561Z,11.15
2023-03-17T07:25:16.331Z,11.07
2023-03-17T07:27:18.154Z,12.60
2023-03-17T07:29:19.901Z,9.40
2023-03-17T07:31:22.921Z,11.30
2023-03-17T07:33:25.174Z,10.77
2023-03-17T07:35:26.845Z,14.18
2023-03-17T07:37:28.428Z,11.45
2023-03-17T07:39:30.050Z,12.82
2023-03-17T07:41:31.767Z,15.38
2023-03-17T07:43:33.348Z,15.43
2023-03-17T07:45:35.367Z,10.25
2023-03-17T07:47:38.478Z,13.23
2023-03-17T07:49:42.219Z,12.13
2023-03-17T07:51:44.195Z,11.90
2023-03-17T07:53:45.801Z,13.43
2023-03-17T07:55:52.067Z,19.73
2023-03-17T07:57:53.693Z,13.73
2023-03-17T07:59:55.431Z,12.02
2023-03-17T08:01:57.178Z,12.88
2023-03-17T08:04:00.561Z,16.77
2023-03-17T08:06:02.241Z,17.17
2023-03-17T08:08:03.860Z,12.45
2023-03-17T08:10:13.209Z,15.45
2023-03-17T08:12:14.938Z,12.88
2023-03-17T08:14:16.601Z,12.80
2023-03-17T08:16:18.289Z,11.45
2023-03-17T08:18:19.896Z,15.05
2023-03-17T08:20:23.019Z,12.32
2023-03-17T08:22:24.993Z,11.95
2023-03-17T08:24:26.601Z,11.68
2023-03-17T08:26:28.324Z,11.82
2023-03-17T08:28:30.176Z,11.13
2023-03-17T08:30:33.787Z,13.65
2023-03-17T08:32:35.701Z,12.48
2023-03-17T08:34:37.787Z,11.48
2023-03-17T08:36:40.717Z,11.90
2023-03-17T08:38:43.139Z,12.05
2023-03-17T08:40:45.165Z,12.75
2023-03-17T08:42:48.133Z,12.07
2023-03-17T08:44:49.951Z,11.02
2023-03-17T08:46:51.698Z,11.70
2023-03-17T08:48:55.262Z,11.38
2023-03-17T08:50:57.598Z,15.47
2023-03-17T08:53:00.548Z,10.80
2023-03-17T08:55:02.754Z,10.60
2023-03-17T08:57:04.561Z,12.07
2023-03-17T08:59:07.216Z,12.77
2023-03-17T09:01:09.816Z,14.20
2023-03-17T09:03:11.439Z,13.83
2023-03-17T09:05:14.628Z,14.00
2023-03-17T09:07:16.251Z,12.63
2023-03-17T09:09:19.175Z,16.73
2023-03-17T09:11:25.323Z,13.33
2023-03-17T09:13:27.000Z,11.53
2023-03-17T09:15:29.106Z,13.63
2023-03-17T09:17:30.858Z,12.87
2023-03-17T09:19:32.402Z,11.85
2023-03-17T09:21:34.025Z,11.17
2023-03-17T09:23:35.615Z,11.43
2023-03-17T09:25:40.355Z,14.27
2023-03-17T09:27:42.117Z,12.43
2023-03-17T09:29:51.258Z,12.20
2023-03-17T09:31:54.369Z,10.63
2023-03-17T09:33:55.974Z,10.10
2023-03-17T09:35:57.873Z,11.33
2023-03-17T09:37:59.588Z,11.07
2023-03-17T09:40:01.119Z,13.17
2023-03-17T09:42:18.018Z,11.30
2023-03-17T09:44:58.685Z,12.37
2023-03-17T09:47:13.365Z,11.67
2023-03-17T09:49:18.307Z,10.80
2023-03-17T09:51:20.055Z,11.75
2023-03-17T09:53:25.808Z,10.10
2023-03-17T09:55:30.172Z,10.50
2023-03-17T09:57:36.174Z,8.10
2023-03-17T09:59:42.154Z,13.70
2023-03-17T10:01:44.036Z,8.87
2023-03-17T10:03:46.804Z,9.53
2023-03-17T10:05:48.469Z,8.33
2023-03-17T10:07:59.053Z,8.60
2023-03-17T10:10:02.853Z,8.67
2023-03-17T10:12:09.793Z,10.50
2023-03-17T10:14:41.828Z,8.83
2023-03-17T10:16:51.667Z,6.23
2023-03-17T10:18:57.068Z,6.40
2023-03-17T10:21:03.562Z,6.47
2023-03-17T10:23:07.485Z,9.80
2023-03-17T10:25:14.336Z,9.07
2023-03-17T10:27:17.780Z,6.03
2023-03-17T10:29:21.777Z,6.67
2023-03-17T10:31:29.454Z,7.03
2023-03-17T10:33:31.004Z,9.23
2023-03-17T10:35:33.184Z,6.70
2023-03-17T10:37:35.025Z,8.13
2023-03-17T10:39:43.649Z,8.00
2023-03-17T10:41:54.488Z,7.07
2023-03-17T10:43:57.975Z,12.50
2023-03-17T10:46:04.514Z,9.17
2023-03-17T10:48:10.032Z,8.03
2023-03-17T10:50:20.423Z,6.73
2023-03-17T10:52:26.687Z,7.03
2023-03-17T10:54:28.292Z,7.73
2023-03-17T10:56:34.734Z,6.40
2023-03-17T10:58:38.978Z,7.23
2023-03-17T11:00:53.692Z,8.17
2023-03-17T11:02:57.578Z,7.87
2023-03-17T11:05:04.387Z,9.20
2023-03-17T11:07:08.437Z,6.57
2023-03-17T11:09:16.695Z,8.30
2023-03-17T11:11:24.720Z,8.10
2023-03-17T11:13:29.443Z,6.50
2023-03-17T11:15:34.254Z,6.80
2023-03-17T11:17:45.426Z,10.27
2023-03-17T11:19:54.441Z,6.87
2023-03-17T11:22:08.488Z,7.07
2023-03-17T11:24:14.514Z,7.50
2023-03-17T11:26:43.393Z,6.53
2023-03-17T11:28:53.196Z,7.30
2023-03-17T11:31:03.624Z,7.50
2023-03-17T11:33:13.753Z,6.77
2023-03-17T11:35:46.128Z,10.20
2023-03-17T11:38:05.185Z,7.80
2023-03-17T11:40:14.995Z,5.90
2023-03-17T11:42:23.089Z,6.93
2023-03-17T11:45:09.392Z,8.90
2023-03-17T11:47:24.708Z,7.73
2023-03-17T11:49:31.798Z,6.67
2023-03-17T11:51:49.527Z,6.40
2023-03-17T11:54:03.263Z,6.30
2023-03-17T11:56:10.706Z,5.60
2023-03-17T11:58:20.063Z,6.10
2023-03-17T12:00:29.989Z,5.63
2023-03-17T12:02:40.670Z,9.57
2023-03-17T12:04:51.661Z,5.93
2023-03-17T12:06:59.751Z,14.40
2023-03-17T12:09:10.863Z,9.20
2023-03-17T12:11:16.380Z,8.13
2023-03-17T12:13:24.460Z,12.83
2023-03-17T12:15:34.206Z,7.30
2023-03-17T12:17:43.557Z,10.70
2023-03-17T12:19:57.001Z,9.43
2023-03-17T12:22:06.288Z,7.30
2023-03-17T12:24:15.257Z,6.77
2023-03-17T12:26:20.016Z,6.80
2023-03-17T12:28:26.332Z,6.40
2023-03-17T12:30:33.538Z,6.10
2023-03-17T12:32:39.395Z,8.53
2023-03-17T12:34:46.668Z,7.40
2023-03-17T12:36:48.773Z,7.63
2023-03-17T12:38:56.359Z,7.17
2023-03-17T12:41:36.361Z,6.80
2023-03-17T12:43:46.683Z,10.30
2023-03-17T12:46:10.289Z,6.73
2023-03-17T12:48:24.268Z,6.23
2023-03-17T12:50:37.366Z,5.80
2023-03-17T12:53:01.640Z,7.63
2023-03-17T12:55:09.352Z,8.40
2023-03-17T12:57:15.014Z,6.33
2023-03-17T12:59:21.723Z,5.73
2023-03-17T13:01:31.176Z,8.13
2023-03-17T13:03:34.164Z,7.87
2023-03-17T13:05:35.874Z,6.40
2023-03-17T13:07:41.306Z,7.70
2023-03-17T13:09:46.971Z,7.13
2023-03-17T13:11:48.779Z,7.50
2023-03-17T13:14:14.100Z,7.67
2023-03-17T13:16:33.014Z,6.43
2023-03-17T13:18:50.146Z,6.73
2023-03-17T13:21:08.004Z,8.37
2023-03-17T13:23:14.612Z,7.10
2023-03-17T13:25:30.694Z,6.57
2023-03-17T13:27:44.672Z,7.13
2023-03-17T13:29:47.912Z,6.40
2023-03-17T13:31:49.687Z,9.13
2023-03-17T13:33:53.860Z,7.63
2023-03-17T13:36:19.595Z,7.43
2023-03-17T13:38:34.820Z,7.83
2023-03-17T13:40:45.651Z,7.20
2023-03-17T13:43:07.550Z,7.17
2023-03-17T13:45:21.446Z,7.60
2023-03-17T13:47:32.441Z,7.27
2023-03-17T13:49:34.277Z,6.47
2023-03-17T13:51:36.781Z,6.83
2023-03-17T13:53:42.499Z,6.47
2023-03-17T13:56:08.639Z,8.33
2023-03-17T13:58:34.219Z,6.50
2023-03-17T14:00:40.539Z,9.33
2023-03-17T14:02:44.039Z,6.50
2023-03-17T14:04:52.841Z,8.00
2023-03-17T14:06:58.220Z,8.87
2023-03-17T14:09:03.380Z,6.20
2023-03-17T14:11:16.196Z,6.77
2023-03-17T14:13:23.313Z,5.60
2023-03-17T14:15:29.353Z,6.60
2023-03-17T14:17:39.467Z,8.10
2023-03-17T14:19:41.214Z,7.17
2023-03-17T14:21:42.805Z,7.90
2023-03-17T14:23:52.898Z,7.30
2023-03-17T14:25:56.495Z,7.40
2023-03-17T14:27:58.826Z,7.53
2023-03-17T14:30:06.636Z,8.50
2023-03-17T14:32:15.116Z,5.60
2023-03-17T14:34:21.921Z,6.47
2023-03-17T14:36:24.487Z,6.53
2023-03-17T14:38:28.526Z,7.00
2023-03-17T14:40:31.683Z,4.10
2023-03-17T14:42:33.423Z,6.77
2023-03-17T14:44:38.831Z,5.50
2023-03-17T14:46:40.547Z,4.80
2023-03-17T14:48:46.624Z,6.17
2023-03-17T14:50:53.372Z,5.13
2023-03-17T14:52:55.611Z,11.10
2023-03-17T14:54:59.103Z,10.83
2023-03-17T14:57:02.841Z,7.97
2023-03-17T14:59:07.679Z,10.77
2023-03-17T15:01:16.327Z,6.30
2023-03-17T15:03:23.361Z,5.17
2023-03-17T15:05:28.040Z,6.67
2023-03-17T15:07:37.002Z,4.63
2023-03-17T15:09:40.220Z,7.90
2023-03-17T15:11:43.777Z,7.70
2023-03-17T15:13:45.784Z,5.90
2023-03-17T15:15:47.476Z,5.57
2023-03-17T15:17:52.436Z,8.43
2023-03-17T15:19:56.754Z,7.13
2023-03-17T15:21:58.355Z,5.77
2023-03-17T15:24:18.710Z,8.83
2023-03-17T15:26:23.516Z,5.60
2023-03-17T15:28:30.892Z,6.33
2023-03-17T15:30:46.226Z,5.60
2023-03-17T15:32:57.578Z,6.70
2023-03-17T15:34:59.229Z,7.63
2023-03-17T15:37:00.854Z,5.13
2023-03-17T15:39:02.957Z,6.80
2023-03-17T15:41:06.352Z,6.40
2023-03-17T15:43:13.443Z,9.10
2023-03-17T15:45:16.650Z,7.10
2023-03-17T15:47:20.129Z,7.00
2023-03-17T15:49:21.740Z,7.47
2023-03-17T15:51:23.394Z,5.33
2023-03-17T15:53:25.045Z,9.50
2023-03-17T15:55:29.471Z,5.50
2023-03-17T15:57:32.531Z,9.00
2023-03-17T15:59:34.302Z,8.10
2023-03-17T16:01:37.158Z,7.53
2023-03-17T16:03:39.401Z,7.13
2023-03-17T16:05:42.268Z,6.00
2023-03-17T16:07:45.570Z,6.60
2023-03-17T16:09:49.769Z,9.53
2023-03-17T16:11:51.348Z,6.83
2023-03-17T16:13:54.618Z,5.70
2023-03-17T16:15:59.017Z,5.93
2023-03-17T16:18:03.538Z,7.57
2023-03-17T16:20:06.066Z,8.90
2023-03-17T16:22:25.153Z,10.37
2023-03-17T16:24:27.249Z,10.20
2023-03-17T16:26:28.841Z,8.83
2023-03-17T16:28:32.176Z,7.40
2023-03-17T16:30:35.147Z,5.73
2023-03-17T16:32:36.859Z,6.73
2023-03-17T16:34:38.621Z,9.53
2023-03-17T16:36:43.100Z,7.50
2023-03-17T16:38:44.878Z,11.10
2023-03-17T16:40:48.694Z,10.63
2023-03-17T16:42:50.794Z,12.83
2023-03-17T16:44:52.670Z,8.37
2023-03-17T16:46:55.678Z,9.90
2023-03-17T16:48:57.314Z,12.83
2023-03-17T16:51:01.985Z,11.87
2023-03-17T16:53:03.679Z,9.40
2023-03-17T16:55:05.936Z,11.97
2023-03-17T16:57:11.669Z,13.03
2023-03-17T16:59:18.932Z,9.63
2023-03-17T17:01:23.897Z,8.30
2023-03-17T17:03:27.002Z,7.90
2023-03-17T17:05:30.687Z,8.70
2023-03-17T17:07:32.271Z,15.77
2023-03-17T17:09:33.852Z,12.37
2023-03-17T17:11:35.510Z,10.33
2023-03-17T17:13:37.261Z,14.40
2023-03-17T17:15:39.658Z,12.67
2023-03-17T17:17:44.111Z,16.13
2023-03-17T17:19:47.084Z,16.73
2023-03-17T17:21:48.698Z,21.87
2023-03-17T17:23:52.760Z,21.13
2023-03-17T17:25:55.171Z,28.70
2023-03-17T17:27:57.519Z,26.80
2023-03-17T17:29:59.173Z,22.63
2023-03-17T17:32:00.757Z,18.60
2023-03-17T17:34:02.344Z,15.40
2023-03-17T17:36:08.268Z,17.80
2023-03-17T17:38:17.642Z,14.17
2023-03-17T17:40:24.016Z,11.47
2023-03-17T17:42:25.954Z,11.80
2023-03-17T17:44:27.517Z,13.43
2023-03-17T17:46:29.187Z,12.20
2023-03-17T17:48:30.905Z,13.50
2023-03-17T17:50:33.232Z,9.80
2023-03-17T17:52:36.382Z,9.00
2023-03-17T17:54:38.442Z,10.17
2023-03-17T17:56:40.113Z,10.73
2023-03-17T17:58:42.229Z,12.73
2023-03-17T18:00:44.558Z,11.63
2023-03-17T18:02:46.260Z,17.00
2023-03-17T18:04:47.942Z,11.20
2023-03-17T18:06:49.568Z,12.27
2023-03-17T18:08:52.640Z,10.00
2023-03-17T18:10:54.277Z,9.87
2023-03-17T18:12:56.377Z,12.57
2023-03-17T18:14:58.535Z,11.60
2023-03-17T18:17:02.969Z,15.40
2023-03-17T18:19:06.607Z,17.20
2023-03-17T18:21:08.431Z,15.87
2023-03-17T18:23:10.159Z,16.10
2023-03-17T18:25:13.595Z,15.30
2023-03-17T18:27:15.845Z,15.07
2023-03-17T18:29:17.516Z,15.50
2023-03-17T18:31:24.800Z,14.00
2023-03-17T18:33:27.995Z,14.47
2023-03-17T18:35:29.889Z,17.93
2023-03-17T18:37:33.046Z,22.87
2023-03-17T18:39:34.733Z,62.97
2023-03-17T18:41:38.354Z,29.80
2023-03-17T18:43:40.383Z,29.77
2023-03-17T18:45:44.512Z,48.53
2023-03-17T18:47:46.296Z,42.77
2023-03-17T18:49:48.180Z,45.40
2023-03-17T18:51:49.999Z,43.57
2023-03-17T18:53:51.643Z,49.67
2023-03-17T18:55:53.309Z,45.73
2023-03-17T18:57:58.368Z,37.33
2023-03-17T19:00:00.102Z,36.93
2023-03-17T19:02:02.628Z,31.80
2023-03-17T19:04:04.504Z,31.10
2023-03-17T19:06:11.622Z,33.77
2023-03-17T19:08:13.296Z,35.67
2023-03-17T19:10:15.534Z,35.87
2023-03-17T19:12:17.113Z,35.53
2023-03-17T19:14:20.098Z,37.53
2023-03-17T19:16:21.729Z,37.27
2023-03-17T19:18:23.892Z,36.37
2023-03-17T19:20:25.587Z,26.80
2023-03-17T19:22:27.334Z,26.97
2023-03-17T19:24:29.052Z,24.83
2023-03-17T19:26:31.053Z,18.00
2023-03-17T19:28:33.555Z,18.37
2023-03-17T19:30:36.568Z,15.90
2023-03-17T19:32:38.213Z,14.30
2023-03-17T19:34:40.084Z,16.73
2023-03-17T19:36:43.756Z,15.67
2023-03-17T19:38:45.549Z,14.73
2023-03-17T19:40:47.212Z,13.03
2023-03-17T19:42:48.832Z,11.57
2023-03-17T19:44:50.471Z,12.93
2023-03-17T19:46:53.700Z,53.87
2023-03-17T19:48:55.906Z,55.73
2023-03-17T19:50:57.628Z,21.17
2023-03-17T19:52:59.268Z,13.33
2023-03-17T19:55:00.848Z,13.53
2023-03-17T19:57:02.479Z,14.50
2023-03-17T19:59:04.562Z,14.60
2023-03-17T20:01:06.485Z,9.80
2023-03-17T20:03:11.938Z,8.97
2023-03-17T20:05:16.142Z,9.17
2023-03-17T20:07:17.755Z,9.93
2023-03-17T20:09:19.390Z,11.83
2023-03-17T20:11:20.984Z,10.43
2023-03-17T20:13:22.635Z,10.33
2023-03-17T20:15:24.413Z,10.00
2023-03-17T20:17:26.471Z,10.33
2023-03-17T20:19:31.904Z,11.50
2023-03-17T20:21:33.529Z,10.50
2023-03-17T20:23:35.149Z,11.43
2023-03-17T20:25:36.779Z,10.33
2023-03-17T20:27:39.380Z,11.60
2023-03-17T20:29:41.031Z,11.73
2023-03-17T20:31:42.913Z,12.30
2023-03-17T20:33:44.560Z,13.40
2023-03-17T20:35:47.577Z,12.57
2023-03-17T20:37:49.486Z,12.57
2023-03-17T20:39:51.196Z,13.13
2023-03-17T20:41:52.897Z,14.67
2023-03-17T20:43:54.508Z,13.93
2023-03-17T20:45:56.202Z,15.43
2023-03-17T20:47:57.987Z,14.90
2023-03-17T20:49:59.528Z,18.10
2023-03-17T20:52:02.744Z,13.57
2023-03-17T20:54:05.318Z,13.20
2023-03-17T20:56:07.224Z,13.13
2023-03-17T20:58:09.123Z,13.70
2023-03-17T21:00:14.600Z,13.90
2023-03-17T21:02:17.402Z,14.73
2023-03-17T21:04:19.236Z,15.40
2023-03-17T21:06:20.946Z,17.23
2023-03-17T21:08:23.994Z,17.07
2023-03-17T21:10:25.720Z,19.33
2023-03-17T21:12:27.569Z,18.50
2023-03-17T21:14:29.100Z,16.07
2023-03-17T21:16:30.822Z,17.67
2023-03-17T21:18:32.498Z,18.40
2023-03-17T21:20:34.291Z,17.97
2023-03-17T21:22:36.375Z,18.80
2023-03-17T21:24:39.876Z,25.00
2023-03-17T21:26:41.460Z,18.67
2023-03-17T21:28:43.508Z,19.37
2023-03-17T21:30:45.040Z,17.53
2023-03-17T21:32:46.628Z,18.93
2023-03-17T21:34:48.361Z,17.93
2023-03-17T21:36:49.968Z,14.93
2023-03-17T21:38:51.577Z,16.57
2023-03-17T21:40:54.802Z,16.10
2023-03-17T21:42:56.499Z,14.90
2023-03-17T21:44:58.095Z,16.53
2023-03-17T21:47:00.504Z,20.90
2023-03-17T21:49:02.123Z,14.97
2023-03-17T21:51:04.002Z,21.23
2023-03-17T21:53:05.745Z,15.43
2023-03-17T21:55:07.914Z,15.40
2023-03-17T21:57:10.844Z,11.50
2023-03-17T21:59:12.474Z,12.37
2023-03-17T22:01:15.868Z,17.40
2023-03-17T22:03:20.346Z,15.07
2023-03-17T22:05:21.955Z,16.70
2023-03-17T22:07:23.474Z,13.93
2023-03-17T22:09:25.087Z,11.93
2023-03-17T22:11:26.858Z,12.30
2023-03-17T22:13:31.917Z,15.67
2023-03-17T22:15:33.462Z,12.82
2023-03-17T22:17:35.092Z,20.00
2023-03-17T22:19:36.919Z,21.37
2023-03-17T22:21:38.528Z,15.40
2023-03-17T22:23:40.409Z,13.35
2023-03-17T22:25:41.936Z,10.43
2023-03-17T22:27:43.674Z,13.10
2023-03-17T22:29:47.279Z,11.20
2023-03-17T22:31:48.973Z,12.37
2023-03-17T22:33:52.647Z,10.50
2023-03-17T22:35:54.228Z,9.30
2023-03-17T22:37:55.829Z,9.13
2023-03-17T22:39:57.419Z,10.77
2023-03-17T22:41:59.014Z,8.43
2023-03-17T22:44:00.537Z,10.20
2023-03-17T22:46:04.567Z,10.93
2023-03-17T22:48:06.650Z,9.40
2023-03-17T22:50:09.759Z,8.93
2023-03-17T22:52:11.488Z,9.77
2023-03-17T22:54:14.413Z,13.10
2023-03-17T22:56:17.416Z,9.60
2023-03-17T22:58:18.996Z,13.97
2023-03-17T23:00:21.094Z,9.90
2023-03-17T23:02:24.822Z,8.77
2023-03-17T23:04:26.365Z,7.80
2023-03-17T23:06:28.402Z,8.60
2023-03-17T23:08:31.171Z,9.00
2023-03-17T23:10:33.124Z,8.80
2023-03-17T23:12:35.435Z,8.90
2023-03-17T23:14:37.074Z,9.05
2023-03-17T23:16:38.939Z,14.43
2023-03-17T23:18:43.294Z,12.20
2023-03-17T23:20:46.293Z,8.93
2023-03-17T23:22:48.096Z,12.47
2023-03-17T23:24:49.719Z,9.23
2023-03-17T23:26:51.362Z,8.60
2023-03-17T23:28:53.444Z,10.00
2023-03-17T23:30:55.731Z,9.07
2023-03-17T23:32:57.664Z,9.40
2023-03-17T23:35:00.841Z,12.43
2023-03-17T23:37:02.413Z,10.37
2023-03-17T23:39:04.024Z,9.90
2023-03-17T23:41:06.130Z,9.93
2023-03-17T23:43:07.782Z,13.67
2023-03-17T23:45:10.426Z,12.27
2023-03-17T23:47:12.784Z,10.80
2023-03-17T23:49:14.394Z,11.20
2023-03-17T23:51:18.191Z,9.50
2023-03-17T23:53:20.480Z,9.37
2023-03-17T23:55:22.049Z,9.60
2023-03-17T23:57:23.975Z,10.90
2023-03-17T23:59:26.615Z,9.20
